CES116 NZAA-NZQN
Flight info
| Callsign | CES116 |
|---|---|
| Flight time | N/A |
| Altitude | 36000 |
| Route | KAPAI Y320 DOVOT |
| Aircraft | A320/M-SDE2E3FGHIRW/LB1 |
Departure
| Time | 2026-05-04 14:37 |
|---|---|
| Airport | Auckland International Airport (NZAA) |
Arrival
| Time | N/A |
|---|---|
| Airport | Queenstown Airport (NZQN) |
| Time | Latitude | Longitude | Altitude | Speed | Heading |
|---|---|---|---|---|---|
| 2026-05-04 14:20 | -37.00832 | 174.78282 | 26 ft | 0 kts | 323° |
| 2026-05-04 14:27 | -37.00837 | 174.78286 | 29 ft | 4 kts | 321° |
| 2026-05-04 14:27 | -37.00855 | 174.78309 | 28 ft | 4 kts | 297° |
| 2026-05-04 14:27 | -37.00861 | 174.78339 | 31 ft | 4 kts | 256° |
| 2026-05-04 14:28 | -37.00849 | 174.78365 | 31 ft | 4 kts | 212° |
| 2026-05-04 14:28 | -37.00833 | 174.78373 | 30 ft | 0 kts | 185° |
| 2026-05-04 14:28 | -37.00850 | 174.78371 | 31 ft | 4 kts | 185° |
| 2026-05-04 14:28 | -37.00877 | 174.78368 | 28 ft | 4 kts | 185° |
| 2026-05-04 14:29 | -37.00886 | 174.78367 | 26 ft | 0 kts | 185° |
| 2026-05-04 14:31 | -37.00971 | 174.78364 | 25 ft | 16 kts | 158° |
| 2026-05-04 14:32 | -37.01120 | 174.78234 | 25 ft | 15 kts | 251° |
| 2026-05-04 14:32 | -37.01152 | 174.78121 | 25 ft | 13 kts | 251° |
| 2026-05-04 14:32 | -37.01178 | 174.78023 | 26 ft | 11 kts | 251° |
| 2026-05-04 14:32 | -37.01202 | 174.77938 | 28 ft | 11 kts | 250° |
| 2026-05-04 14:33 | -37.01233 | 174.77824 | 26 ft | 17 kts | 251° |
| 2026-05-04 14:33 | -37.01279 | 174.77660 | 26 ft | 22 kts | 250° |
| 2026-05-04 14:33 | -37.01332 | 174.77465 | 26 ft | 25 kts | 251° |
| 2026-05-04 14:33 | -37.01391 | 174.77251 | 26 ft | 27 kts | 250° |
| 2026-05-04 14:34 | -37.01463 | 174.77110 | 27 ft | 18 kts | 188° |
| 2026-05-04 14:34 | -37.01558 | 174.77081 | 28 ft | 13 kts | 192° |
| 2026-05-04 14:34 | -37.01615 | 174.77145 | 26 ft | 13 kts | 83° |
| 2026-05-04 14:34 | -37.01608 | 174.77172 | 27 ft | 0 kts | 69° |
| 2026-05-04 14:36 | -37.01607 | 174.77175 | 27 ft | 3 kts | 69° |
| 2026-05-04 14:36 | -37.01551 | 174.77375 | 26 ft | 58 kts | 71° |
| 2026-05-04 14:36 | -37.01345 | 174.78121 | 26 ft | 120 kts | 71° |
| 2026-05-04 14:36 | -37.01023 | 174.79313 | 34 ft | 166 kts | 73° |
| 2026-05-04 14:37 | -37.00709 | 174.80679 | 743 ft | 160 kts | 87° |
| 2026-05-04 14:37 | -37.01068 | 174.81963 | 1381 ft | 164 kts | 134° |
| 2026-05-04 14:37 | -37.02182 | 174.82576 | 1668 ft | 195 kts | 176° |
| 2026-05-04 14:37 | -37.03612 | 174.82426 | 2020 ft | 217 kts | 182° |
| 2026-05-04 14:38 | -37.05150 | 174.82266 | 2673 ft | 225 kts | 181° |
| 2026-05-04 14:38 | -37.06743 | 174.82166 | 3356 ft | 233 kts | 180° |
| 2026-05-04 14:38 | -37.08347 | 174.82014 | 4173 ft | 230 kts | 184° |
| 2026-05-04 14:38 | -37.09927 | 174.81812 | 4942 ft | 233 kts | 183° |
| 2026-05-04 14:39 | -37.11555 | 174.81626 | 5656 ft | 237 kts | 182° |
| 2026-05-04 14:39 | -37.13211 | 174.81432 | 6365 ft | 241 kts | 187° |
| 2026-05-04 14:39 | -37.14817 | 174.80718 | 6845 ft | 254 kts | 207° |
| 2026-05-04 14:40 | -37.18144 | 174.78359 | 7631 ft | 291 kts | 209° |
| 2026-05-04 14:40 | -37.19915 | 174.77075 | 8384 ft | 296 kts | 209° |
| 2026-05-04 14:40 | -37.21706 | 174.75777 | 9187 ft | 299 kts | 209° |
| 2026-05-04 14:40 | -37.23517 | 174.74469 | 9991 ft | 302 kts | 209° |
| 2026-05-04 14:41 | -37.25376 | 174.73132 | 10521 ft | 318 kts | 209° |
| 2026-05-04 14:41 | -37.27368 | 174.71707 | 10743 ft | 340 kts | 209° |
| 2026-05-04 14:41 | -37.31601 | 174.68684 | 11928 ft | 355 kts | 209° |
| 2026-05-04 14:42 | -37.35937 | 174.65586 | 13335 ft | 362 kts | 209° |
| 2026-05-04 14:42 | -37.38140 | 174.64005 | 14016 ft | 366 kts | 210° |
| 2026-05-04 14:42 | -37.40363 | 174.62407 | 14654 ft | 369 kts | 210° |
| 2026-05-04 14:43 | -37.42600 | 174.60799 | 15265 ft | 372 kts | 210° |
| 2026-05-04 14:43 | -37.44857 | 174.59176 | 15878 ft | 375 kts | 210° |
| 2026-05-04 14:43 | -37.47127 | 174.57542 | 16487 ft | 378 kts | 210° |